sensor_id;sensor_type;location;lat;lon;timestamp;P1;durP1;ratioP1;P2;durP2;ratioP2
57085;SDS011;42964;42.910;23.792;2023-07-24T00:00:31;19.40;;;12.98;;
57085;SDS011;42964;42.910;23.792;2023-07-24T00:05:34;16.80;;;12.48;;
57085;SDS011;42964;42.910;23.792;2023-07-24T00:10:33;18.67;;;13.02;;
57085;SDS011;42964;42.910;23.792;2023-07-24T00:15:32;19.45;;;14.13;;
57085;SDS011;42964;42.910;23.792;2023-07-24T00:20:31;19.48;;;12.60;;
57085;SDS011;42964;42.910;23.792;2023-07-24T00:25:30;19.52;;;13.18;;
57085;SDS011;42964;42.910;23.792;2023-07-24T00:30:28;18.33;;;14.30;;
57085;SDS011;42964;42.910;23.792;2023-07-24T00:35:27;17.85;;;13.07;;
57085;SDS011;42964;42.910;23.792;2023-07-24T00:40:26;19.75;;;13.95;;
57085;SDS011;42964;42.910;23.792;2023-07-24T00:45:25;20.55;;;13.70;;
57085;SDS011;42964;42.910;23.792;2023-07-24T00:50:24;19.73;;;13.35;;
57085;SDS011;42964;42.910;23.792;2023-07-24T00:55:23;19.52;;;13.57;;
57085;SDS011;42964;42.910;23.792;2023-07-24T01:00:23;19.25;;;13.48;;
57085;SDS011;42964;42.910;23.792;2023-07-24T01:05:22;18.95;;;13.52;;
57085;SDS011;42964;42.910;23.792;2023-07-24T01:10:23;20.10;;;13.85;;
57085;SDS011;42964;42.910;23.792;2023-07-24T01:20:28;16.90;;;12.48;;
57085;SDS011;42964;42.910;23.792;2023-07-24T01:25:32;18.95;;;12.77;;
57085;SDS011;42964;42.910;23.792;2023-07-24T01:30:36;17.77;;;12.70;;
57085;SDS011;42964;42.910;23.792;2023-07-24T01:35:35;20.10;;;13.35;;
57085;SDS011;42964;42.910;23.792;2023-07-24T01:40:36;20.85;;;13.52;;
57085;SDS011;42964;42.910;23.792;2023-07-24T01:45:37;22.60;;;15.73;;
57085;SDS011;42964;42.910;23.792;2023-07-24T01:50:36;21.27;;;14.90;;
57085;SDS011;42964;42.910;23.792;2023-07-24T01:55:35;22.83;;;16.13;;
57085;SDS011;42964;42.910;23.792;2023-07-24T02:00:34;22.02;;;15.20;;
57085;SDS011;42964;42.910;23.792;2023-07-24T02:05:33;20.60;;;14.60;;
57085;SDS011;42964;42.910;23.792;2023-07-24T02:10:36;20.83;;;14.23;;
57085;SDS011;42964;42.910;23.792;2023-07-24T02:15:36;18.75;;;12.82;;
57085;SDS011;42964;42.910;23.792;2023-07-24T02:20:35;19.83;;;12.63;;
57085;SDS011;42964;42.910;23.792;2023-07-24T02:25:35;19.75;;;13.60;;
57085;SDS011;42964;42.910;23.792;2023-07-24T02:30:37;23.90;;;14.15;;
57085;SDS011;42964;42.910;23.792;2023-07-24T02:35:40;19.77;;;13.55;;
57085;SDS011;42964;42.910;23.792;2023-07-24T02:40:40;22.33;;;13.15;;
57085;SDS011;42964;42.910;23.792;2023-07-24T02:45:39;19.80;;;14.25;;
57085;SDS011;42964;42.910;23.792;2023-07-24T02:50:38;25.92;;;15.45;;
57085;SDS011;42964;42.910;23.792;2023-07-24T02:55:41;23.02;;;14.13;;
57085;SDS011;42964;42.910;23.792;2023-07-24T03:00:40;21.15;;;14.10;;
57085;SDS011;42964;42.910;23.792;2023-07-24T03:05:39;22.83;;;13.57;;
57085;SDS011;42964;42.910;23.792;2023-07-24T03:10:41;21.98;;;13.85;;
57085;SDS011;42964;42.910;23.792;2023-07-24T03:15:40;20.45;;;13.68;;
57085;SDS011;42964;42.910;23.792;2023-07-24T03:20:39;21.73;;;14.15;;
57085;SDS011;42964;42.910;23.792;2023-07-24T03:25:38;24.90;;;13.18;;
57085;SDS011;42964;42.910;23.792;2023-07-24T03:30:37;19.60;;;13.60;;
57085;SDS011;42964;42.910;23.792;2023-07-24T03:35:36;16.25;;;11.75;;
57085;SDS011;42964;42.910;23.792;2023-07-24T03:40:35;18.08;;;12.68;;
57085;SDS011;42964;42.910;23.792;2023-07-24T03:45:34;17.75;;;12.32;;
57085;SDS011;42964;42.910;23.792;2023-07-24T03:50:33;21.92;;;13.25;;
57085;SDS011;42964;42.910;23.792;2023-07-24T03:55:32;16.73;;;10.57;;
57085;SDS011;42964;42.910;23.792;2023-07-24T04:00:31;15.20;;;10.48;;
57085;SDS011;42964;42.910;23.792;2023-07-24T04:05:30;13.57;;;9.02;;
57085;SDS011;42964;42.910;23.792;2023-07-24T04:10:29;13.98;;;9.38;;
57085;SDS011;42964;42.910;23.792;2023-07-24T04:15:29;18.08;;;10.63;;
57085;SDS011;42964;42.910;23.792;2023-07-24T04:20:28;24.95;;;10.43;;
57085;SDS011;42964;42.910;23.792;2023-07-24T04:25:27;20.23;;;10.88;;
57085;SDS011;42964;42.910;23.792;2023-07-24T04:30:26;16.27;;;10.48;;
57085;SDS011;42964;42.910;23.792;2023-07-24T04:35:26;27.52;;;11.73;;
57085;SDS011;42964;42.910;23.792;2023-07-24T04:40:25;18.42;;;12.00;;
57085;SDS011;42964;42.910;23.792;2023-07-24T04:45:24;20.55;;;10.50;;
57085;SDS011;42964;42.910;23.792;2023-07-24T04:50:23;19.77;;;12.85;;
57085;SDS011;42964;42.910;23.792;2023-07-24T04:55:22;15.60;;;10.93;;
57085;SDS011;42964;42.910;23.792;2023-07-24T05:00:21;18.00;;;11.48;;
57085;SDS011;42964;42.910;23.792;2023-07-24T05:05:20;16.90;;;11.30;;
57085;SDS011;42964;42.910;23.792;2023-07-24T05:10:19;21.75;;;11.23;;
57085;SDS011;42964;42.910;23.792;2023-07-24T05:15:18;20.73;;;12.35;;
57085;SDS011;42964;42.910;23.792;2023-07-24T05:20:17;19.65;;;12.38;;
57085;SDS011;42964;42.910;23.792;2023-07-24T05:25:16;17.95;;;12.18;;
57085;SDS011;42964;42.910;23.792;2023-07-24T05:30:15;19.10;;;12.07;;
57085;SDS011;42964;42.910;23.792;2023-07-24T05:35:14;20.58;;;12.48;;
57085;SDS011;42964;42.910;23.792;2023-07-24T05:40:13;20.30;;;12.77;;
57085;SDS011;42964;42.910;23.792;2023-07-24T05:45:12;20.23;;;13.23;;
57085;SDS011;42964;42.910;23.792;2023-07-24T05:50:11;20.48;;;12.32;;
57085;SDS011;42964;42.910;23.792;2023-07-24T05:55:12;18.20;;;12.77;;
57085;SDS011;42964;42.910;23.792;2023-07-24T06:00:11;21.17;;;13.32;;
57085;SDS011;42964;42.910;23.792;2023-07-24T06:05:10;22.60;;;11.90;;
57085;SDS011;42964;42.910;23.792;2023-07-24T06:10:09;17.75;;;11.77;;
57085;SDS011;42964;42.910;23.792;2023-07-24T06:15:08;18.15;;;13.52;;
57085;SDS011;42964;42.910;23.792;2023-07-24T06:20:08;19.45;;;13.10;;
57085;SDS011;42964;42.910;23.792;2023-07-24T06:25:07;18.65;;;11.88;;
57085;SDS011;42964;42.910;23.792;2023-07-24T06:30:06;18.45;;;13.38;;
57085;SDS011;42964;42.910;23.792;2023-07-24T06:35:05;18.88;;;13.20;;
57085;SDS011;42964;42.910;23.792;2023-07-24T06:40:06;19.20;;;13.13;;
57085;SDS011;42964;42.910;23.792;2023-07-24T06:45:06;16.55;;;13.00;;
57085;SDS011;42964;42.910;23.792;2023-07-24T06:50:05;15.63;;;11.88;;
57085;SDS011;42964;42.910;23.792;2023-07-24T06:55:05;17.05;;;12.30;;
57085;SDS011;42964;42.910;23.792;2023-07-24T07:00:04;20.08;;;11.82;;
57085;SDS011;42964;42.910;23.792;2023-07-24T07:05:04;15.35;;;12.02;;
57085;SDS011;42964;42.910;23.792;2023-07-24T07:10:04;17.00;;;11.80;;
57085;SDS011;42964;42.910;23.792;2023-07-24T07:15:04;17.13;;;10.23;;
57085;SDS011;42964;42.910;23.792;2023-07-24T07:20:03;14.05;;;10.57;;
57085;SDS011;42964;42.910;23.792;2023-07-24T07:25:02;15.18;;;10.00;;
57085;SDS011;42964;42.910;23.792;2023-07-24T07:30:03;16.33;;;10.90;;
57085;SDS011;42964;42.910;23.792;2023-07-24T07:35:03;44.72;;;12.15;;
57085;SDS011;42964;42.910;23.792;2023-07-24T07:40:02;14.02;;;10.27;;
57085;SDS011;42964;42.910;23.792;2023-07-24T07:45:03;14.95;;;10.13;;
57085;SDS011;42964;42.910;23.792;2023-07-24T07:50:03;14.55;;;8.90;;
57085;SDS011;42964;42.910;23.792;2023-07-24T07:55:02;13.27;;;8.80;;
57085;SDS011;42964;42.910;23.792;2023-07-24T08:00:01;13.95;;;9.25;;
57085;SDS011;42964;42.910;23.792;2023-07-24T08:05:01;13.45;;;8.57;;
57085;SDS011;42964;42.910;23.792;2023-07-24T08:10:03;10.88;;;8.20;;
57085;SDS011;42964;42.910;23.792;2023-07-24T08:15:03;12.18;;;8.40;;
57085;SDS011;42964;42.910;23.792;2023-07-24T08:20:02;12.35;;;8.45;;
57085;SDS011;42964;42.910;23.792;2023-07-24T08:25:01;14.43;;;8.85;;
57085;SDS011;42964;42.910;23.792;2023-07-24T08:30:00;14.40;;;10.07;;
57085;SDS011;42964;42.910;23.792;2023-07-24T08:34:59;14.18;;;8.57;;
57085;SDS011;42964;42.910;23.792;2023-07-24T08:39:58;14.57;;;8.30;;
57085;SDS011;42964;42.910;23.792;2023-07-24T08:44:57;10.20;;;7.68;;
57085;SDS011;42964;42.910;23.792;2023-07-24T08:49:57;12.05;;;8.23;;
57085;SDS011;42964;42.910;23.792;2023-07-24T08:54:57;10.95;;;6.43;;
57085;SDS011;42964;42.910;23.792;2023-07-24T08:59:58;12.18;;;6.97;;
57085;SDS011;42964;42.910;23.792;2023-07-24T09:04:59;11.27;;;6.95;;
57085;SDS011;42964;42.910;23.792;2023-07-24T09:09:58;9.90;;;6.88;;
57085;SDS011;42964;42.910;23.792;2023-07-24T09:15:03;10.32;;;6.97;;
57085;SDS011;42964;42.910;23.792;2023-07-24T09:20:03;10.98;;;8.20;;
57085;SDS011;42964;42.910;23.792;2023-07-24T09:25:03;9.43;;;6.88;;
57085;SDS011;42964;42.910;23.792;2023-07-24T09:30:11;12.82;;;8.07;;
57085;SDS011;42964;42.910;23.792;2023-07-24T09:40:16;14.13;;;8.77;;
57085;SDS011;42964;42.910;23.792;2023-07-24T09:45:15;13.93;;;8.48;;
57085;SDS011;42964;42.910;23.792;2023-07-24T09:50:14;14.52;;;8.52;;
57085;SDS011;42964;42.910;23.792;2023-07-24T09:55:21;16.80;;;10.50;;
57085;SDS011;42964;42.910;23.792;2023-07-24T10:00:25;17.58;;;9.93;;
57085;SDS011;42964;42.910;23.792;2023-07-24T10:05:25;14.68;;;10.07;;
57085;SDS011;42964;42.910;23.792;2023-07-24T10:10:26;14.05;;;10.35;;
57085;SDS011;42964;42.910;23.792;2023-07-24T10:15:27;15.68;;;10.50;;
57085;SDS011;42964;42.910;23.792;2023-07-24T10:20:32;14.32;;;9.82;;
57085;SDS011;42964;42.910;23.792;2023-07-24T10:25:35;16.83;;;10.80;;
57085;SDS011;42964;42.910;23.792;2023-07-24T10:30:35;15.07;;;9.40;;
57085;SDS011;42964;42.910;23.792;2023-07-24T10:40:39;16.08;;;11.05;;
57085;SDS011;42964;42.910;23.792;2023-07-24T10:45:45;18.27;;;9.82;;
57085;SDS011;42964;42.910;23.792;2023-07-24T10:50:46;13.80;;;9.57;;
57085;SDS011;42964;42.910;23.792;2023-07-24T10:55:46;16.48;;;9.02;;
57085;SDS011;42964;42.910;23.792;2023-07-24T11:00:46;23.08;;;9.43;;
57085;SDS011;42964;42.910;23.792;2023-07-24T11:05:46;19.85;;;9.73;;
57085;SDS011;42964;42.910;23.792;2023-07-24T11:15:48;18.60;;;9.30;;
57085;SDS011;42964;42.910;23.792;2023-07-24T11:20:55;14.27;;;8.98;;
57085;SDS011;42964;42.910;23.792;2023-07-24T11:25:54;23.52;;;10.25;;
57085;SDS011;42964;42.910;23.792;2023-07-24T11:30:54;15.10;;;8.82;;
57085;SDS011;42964;42.910;23.792;2023-07-24T11:35:52;14.85;;;9.32;;
57085;SDS011;42964;42.910;23.792;2023-07-24T11:40:53;18.40;;;9.20;;
57085;SDS011;42964;42.910;23.792;2023-07-24T11:45:53;15.60;;;9.07;;
57085;SDS011;42964;42.910;23.792;2023-07-24T11:50:55;13.88;;;9.02;;
57085;SDS011;42964;42.910;23.792;2023-07-24T11:55:57;14.52;;;9.10;;
57085;SDS011;42964;42.910;23.792;2023-07-24T12:00:57;16.05;;;9.77;;
57085;SDS011;42964;42.910;23.792;2023-07-24T12:05:56;16.15;;;9.15;;
57085;SDS011;42964;42.910;23.792;2023-07-24T12:10:55;17.48;;;9.73;;
57085;SDS011;42964;42.910;23.792;2023-07-24T12:15:54;13.63;;;8.52;;
57085;SDS011;42964;42.910;23.792;2023-07-24T12:20:53;13.23;;;9.45;;
57085;SDS011;42964;42.910;23.792;2023-07-24T12:25:52;14.68;;;9.50;;
57085;SDS011;42964;42.910;23.792;2023-07-24T12:30:51;13.55;;;9.65;;
57085;SDS011;42964;42.910;23.792;2023-07-24T12:35:51;12.93;;;8.63;;
57085;SDS011;42964;42.910;23.792;2023-07-24T12:40:51;12.00;;;8.35;;
57085;SDS011;42964;42.910;23.792;2023-07-24T12:45:50;13.23;;;8.98;;
57085;SDS011;42964;42.910;23.792;2023-07-24T12:50:49;11.65;;;8.90;;
57085;SDS011;42964;42.910;23.792;2023-07-24T12:55:48;12.63;;;8.43;;
57085;SDS011;42964;42.910;23.792;2023-07-24T13:00:47;21.17;;;8.63;;
57085;SDS011;42964;42.910;23.792;2023-07-24T13:05:46;13.82;;;6.30;;
57085;SDS011;42964;42.910;23.792;2023-07-24T13:10:45;14.60;;;8.10;;
57085;SDS011;42964;42.910;23.792;2023-07-24T13:15:44;13.63;;;8.50;;
57085;SDS011;42964;42.910;23.792;2023-07-24T13:20:42;11.95;;;8.07;;
57085;SDS011;42964;42.910;23.792;2023-07-24T13:25:41;14.10;;;9.15;;
57085;SDS011;42964;42.910;23.792;2023-07-24T13:30:40;12.32;;;8.77;;
57085;SDS011;42964;42.910;23.792;2023-07-24T13:35:39;12.27;;;8.13;;
57085;SDS011;42964;42.910;23.792;2023-07-24T13:40:38;11.48;;;8.43;;
57085;SDS011;42964;42.910;23.792;2023-07-24T13:45:37;13.50;;;9.23;;
57085;SDS011;42964;42.910;23.792;2023-07-24T13:50:36;11.27;;;8.90;;
57085;SDS011;42964;42.910;23.792;2023-07-24T13:55:35;13.45;;;9.65;;
57085;SDS011;42964;42.910;23.792;2023-07-24T14:00:34;13.63;;;8.88;;
57085;SDS011;42964;42.910;23.792;2023-07-24T14:05:34;12.60;;;8.38;;
57085;SDS011;42964;42.910;23.792;2023-07-24T14:10:35;13.75;;;9.43;;
57085;SDS011;42964;42.910;23.792;2023-07-24T14:15:34;12.77;;;9.50;;
57085;SDS011;42964;42.910;23.792;2023-07-24T14:20:33;13.90;;;8.90;;
57085;SDS011;42964;42.910;23.792;2023-07-24T14:25:32;13.25;;;9.82;;
57085;SDS011;42964;42.910;23.792;2023-07-24T14:30:31;13.10;;;9.57;;
57085;SDS011;42964;42.910;23.792;2023-07-24T14:35:30;12.00;;;9.60;;
57085;SDS011;42964;42.910;23.792;2023-07-24T14:40:29;12.38;;;8.80;;
57085;SDS011;42964;42.910;23.792;2023-07-24T14:45:28;12.65;;;8.98;;
57085;SDS011;42964;42.910;23.792;2023-07-24T14:50:27;14.13;;;9.15;;
57085;SDS011;42964;42.910;23.792;2023-07-24T14:55:26;15.15;;;9.88;;
57085;SDS011;42964;42.910;23.792;2023-07-24T15:00:25;14.07;;;9.88;;
57085;SDS011;42964;42.910;23.792;2023-07-24T15:05:24;13.23;;;8.93;;
57085;SDS011;42964;42.910;23.792;2023-07-24T15:10:23;13.93;;;9.52;;
57085;SDS011;42964;42.910;23.792;2023-07-24T15:15:22;14.88;;;10.18;;
57085;SDS011;42964;42.910;23.792;2023-07-24T15:20:21;13.85;;;9.75;;
57085;SDS011;42964;42.910;23.792;2023-07-24T15:25:20;13.07;;;9.15;;
57085;SDS011;42964;42.910;23.792;2023-07-24T15:30:19;14.13;;;9.30;;
57085;SDS011;42964;42.910;23.792;2023-07-24T15:35:18;13.18;;;9.63;;
57085;SDS011;42964;42.910;23.792;2023-07-24T15:40:17;13.00;;;9.30;;
57085;SDS011;42964;42.910;23.792;2023-07-24T15:45:16;17.60;;;10.00;;
57085;SDS011;42964;42.910;23.792;2023-07-24T15:50:15;14.07;;;9.80;;
57085;SDS011;42964;42.910;23.792;2023-07-24T15:55:14;14.63;;;9.30;;
57085;SDS011;42964;42.910;23.792;2023-07-24T16:00:13;13.20;;;8.90;;
57085;SDS011;42964;42.910;23.792;2023-07-24T16:05:16;15.20;;;9.80;;
57085;SDS011;42964;42.910;23.792;2023-07-24T16:10:20;16.90;;;9.93;;
57085;SDS011;42964;42.910;23.792;2023-07-24T16:15:19;13.68;;;10.32;;
57085;SDS011;42964;42.910;23.792;2023-07-24T16:20:18;12.15;;;8.70;;
57085;SDS011;42964;42.910;23.792;2023-07-24T16:25:19;14.50;;;9.18;;
57085;SDS011;42964;42.910;23.792;2023-07-24T16:30:18;14.07;;;9.65;;
57085;SDS011;42964;42.910;23.792;2023-07-24T16:35:17;16.15;;;9.50;;
57085;SDS011;42964;42.910;23.792;2023-07-24T16:40:16;12.48;;;8.90;;
57085;SDS011;42964;42.910;23.792;2023-07-24T16:45:15;13.65;;;9.25;;
57085;SDS011;42964;42.910;23.792;2023-07-24T16:50:14;12.95;;;9.52;;
57085;SDS011;42964;42.910;23.792;2023-07-24T16:55:14;15.02;;;10.15;;
57085;SDS011;42964;42.910;23.792;2023-07-24T17:00:13;15.02;;;10.15;;
57085;SDS011;42964;42.910;23.792;2023-07-24T17:05:14;13.38;;;8.98;;
57085;SDS011;42964;42.910;23.792;2023-07-24T17:10:13;14.52;;;9.05;;
57085;SDS011;42964;42.910;23.792;2023-07-24T17:15:13;15.05;;;9.45;;
57085;SDS011;42964;42.910;23.792;2023-07-24T17:20:12;15.35;;;9.50;;
57085;SDS011;42964;42.910;23.792;2023-07-24T17:25:11;17.10;;;10.63;;
57085;SDS011;42964;42.910;23.792;2023-07-24T17:30:10;14.68;;;10.10;;
57085;SDS011;42964;42.910;23.792;2023-07-24T17:35:09;65.65;;;12.95;;
57085;SDS011;42964;42.910;23.792;2023-07-24T17:40:08;29.70;;;11.55;;
57085;SDS011;42964;42.910;23.792;2023-07-24T17:45:07;18.17;;;10.55;;
57085;SDS011;42964;42.910;23.792;2023-07-24T17:50:06;15.18;;;9.68;;
57085;SDS011;42964;42.910;23.792;2023-07-24T17:55:06;14.38;;;10.05;;
57085;SDS011;42964;42.910;23.792;2023-07-24T18:00:06;14.93;;;10.02;;
57085;SDS011;42964;42.910;23.792;2023-07-24T18:05:05;14.38;;;10.02;;
57085;SDS011;42964;42.910;23.792;2023-07-24T18:10:05;14.80;;;9.98;;
57085;SDS011;42964;42.910;23.792;2023-07-24T18:15:05;15.70;;;10.68;;
57085;SDS011;42964;42.910;23.792;2023-07-24T18:20:05;19.27;;;9.85;;
57085;SDS011;42964;42.910;23.792;2023-07-24T18:25:04;16.00;;;10.02;;
57085;SDS011;42964;42.910;23.792;2023-07-24T18:30:04;19.20;;;11.02;;
57085;SDS011;42964;42.910;23.792;2023-07-24T18:35:05;14.63;;;10.20;;
57085;SDS011;42964;42.910;23.792;2023-07-24T18:40:04;16.80;;;11.23;;
57085;SDS011;42964;42.910;23.792;2023-07-24T18:45:04;14.23;;;10.60;;
57085;SDS011;42964;42.910;23.792;2023-07-24T18:50:03;16.83;;;11.50;;
57085;SDS011;42964;42.910;23.792;2023-07-24T18:55:03;18.77;;;11.85;;
57085;SDS011;42964;42.910;23.792;2023-07-24T19:00:02;20.27;;;12.20;;
57085;SDS011;42964;42.910;23.792;2023-07-24T19:05:01;18.48;;;11.27;;
57085;SDS011;42964;42.910;23.792;2023-07-24T19:10:01;19.42;;;12.52;;
57085;SDS011;42964;42.910;23.792;2023-07-24T19:15:00;19.85;;;12.13;;
57085;SDS011;42964;42.910;23.792;2023-07-24T19:19:59;16.52;;;11.63;;
57085;SDS011;42964;42.910;23.792;2023-07-24T19:24:58;20.58;;;11.32;;
57085;SDS011;42964;42.910;23.792;2023-07-24T19:29:58;19.52;;;11.07;;
57085;SDS011;42964;42.910;23.792;2023-07-24T19:35:00;16.77;;;10.52;;
57085;SDS011;42964;42.910;23.792;2023-07-24T19:40:01;17.52;;;11.00;;
57085;SDS011;42964;42.910;23.792;2023-07-24T19:45:00;15.60;;;10.75;;
57085;SDS011;42964;42.910;23.792;2023-07-24T19:49:58;19.77;;;12.32;;
57085;SDS011;42964;42.910;23.792;2023-07-24T19:54:57;17.20;;;11.13;;
57085;SDS011;42964;42.910;23.792;2023-07-24T19:59:56;19.95;;;11.88;;
57085;SDS011;42964;42.910;23.792;2023-07-24T20:04:55;20.83;;;13.68;;
57085;SDS011;42964;42.910;23.792;2023-07-24T20:09:54;19.65;;;13.15;;
57085;SDS011;42964;42.910;23.792;2023-07-24T20:14:53;18.08;;;12.68;;
57085;SDS011;42964;42.910;23.792;2023-07-24T20:19:52;20.70;;;12.73;;
57085;SDS011;42964;42.910;23.792;2023-07-24T20:24:51;23.88;;;13.65;;
57085;SDS011;42964;42.910;23.792;2023-07-24T20:29:50;26.15;;;13.23;;
57085;SDS011;42964;42.910;23.792;2023-07-24T20:34:49;20.25;;;12.85;;
57085;SDS011;42964;42.910;23.792;2023-07-24T20:39:49;21.83;;;12.80;;
57085;SDS011;42964;42.910;23.792;2023-07-24T20:44:50;21.73;;;13.18;;
57085;SDS011;42964;42.910;23.792;2023-07-24T20:49:51;20.75;;;11.88;;
57085;SDS011;42964;42.910;23.792;2023-07-24T20:54:50;17.23;;;11.35;;
57085;SDS011;42964;42.910;23.792;2023-07-24T20:59:49;18.42;;;11.75;;
57085;SDS011;42964;42.910;23.792;2023-07-24T21:04:47;17.52;;;11.77;;
57085;SDS011;42964;42.910;23.792;2023-07-24T21:09:49;20.25;;;12.55;;
57085;SDS011;42964;42.910;23.792;2023-07-24T21:14:51;18.10;;;12.48;;
57085;SDS011;42964;42.910;23.792;2023-07-24T21:19:50;20.20;;;13.02;;
57085;SDS011;42964;42.910;23.792;2023-07-24T21:24:49;19.35;;;12.90;;
57085;SDS011;42964;42.910;23.792;2023-07-24T21:29:51;18.38;;;12.43;;
57085;SDS011;42964;42.910;23.792;2023-07-24T21:34:53;19.05;;;12.27;;
57085;SDS011;42964;42.910;23.792;2023-07-24T21:39:52;23.70;;;13.40;;
57085;SDS011;42964;42.910;23.792;2023-07-24T21:44:51;18.42;;;12.27;;
57085;SDS011;42964;42.910;23.792;2023-07-24T21:49:50;19.75;;;12.07;;
57085;SDS011;42964;42.910;23.792;2023-07-24T21:54:49;19.98;;;12.15;;
57085;SDS011;42964;42.910;23.792;2023-07-24T21:59:48;20.38;;;12.07;;
57085;SDS011;42964;42.910;23.792;2023-07-24T22:04:47;18.38;;;12.57;;
57085;SDS011;42964;42.910;23.792;2023-07-24T22:09:46;19.83;;;12.45;;
57085;SDS011;42964;42.910;23.792;2023-07-24T22:14:45;18.98;;;11.77;;
57085;SDS011;42964;42.910;23.792;2023-07-24T22:19:44;17.80;;;12.10;;
57085;SDS011;42964;42.910;23.792;2023-07-24T22:24:43;16.73;;;11.30;;
57085;SDS011;42964;42.910;23.792;2023-07-24T22:29:42;23.48;;;13.70;;
57085;SDS011;42964;42.910;23.792;2023-07-24T22:34:41;19.00;;;12.98;;
57085;SDS011;42964;42.910;23.792;2023-07-24T22:39:39;17.75;;;11.38;;
57085;SDS011;42964;42.910;23.792;2023-07-24T22:44:39;17.92;;;12.48;;
57085;SDS011;42964;42.910;23.792;2023-07-24T22:49:41;19.40;;;12.43;;
57085;SDS011;42964;42.910;23.792;2023-07-24T22:54:39;17.95;;;11.57;;
57085;SDS011;42964;42.910;23.792;2023-07-24T22:59:38;18.50;;;12.75;;
57085;SDS011;42964;42.910;23.792;2023-07-24T23:04:37;22.67;;;12.95;;
57085;SDS011;42964;42.910;23.792;2023-07-24T23:09:36;17.58;;;12.30;;
57085;SDS011;42964;42.910;23.792;2023-07-24T23:14:35;21.90;;;13.45;;
57085;SDS011;42964;42.910;23.792;2023-07-24T23:19:34;20.77;;;13.65;;
57085;SDS011;42964;42.910;23.792;2023-07-24T23:24:33;19.60;;;12.98;;
57085;SDS011;42964;42.910;23.792;2023-07-24T23:29:32;20.90;;;13.38;;
57085;SDS011;42964;42.910;23.792;2023-07-24T23:34:31;19.27;;;13.57;;
57085;SDS011;42964;42.910;23.792;2023-07-24T23:39:30;18.42;;;11.98;;
57085;SDS011;42964;42.910;23.792;2023-07-24T23:44:29;19.52;;;13.25;;
57085;SDS011;42964;42.910;23.792;2023-07-24T23:49:28;20.30;;;12.25;;
57085;SDS011;42964;42.910;23.792;2023-07-24T23:54:27;16.88;;;11.82;;
57085;SDS011;42964;42.910;23.792;2023-07-24T23:59:26;23.45;;;13.23;;
